Time;durP1;ratioP1;P1;durP2;ratioP2;P2;SDS_P1;SDS_P2;PMS_P1;PMS_P2;Temp;Humidity;BMP_temperature;BMP_pressure;BME280_temperature;BME280_humidity;BME280_pressure;Samples;Min_cycle;Max_cycle;Signal;HPM_P1;HPM_P2
2023/06/23 00:00:12;;;;;;;2.80;1.13;;;16.10;99.90;;;;;;5046592;28;20083;-75
2023/06/23 00:02:41;;;;;;;0.13;0.13;;;16.10;99.90;;;;;;5046096;28;20048;-75
2023/06/23 00:05:08;;;;;;;1.15;0.55;;;16.10;99.90;;;;;;5046056;28;20051;-76
2023/06/23 00:07:35;;;;;;;0.15;0.15;;;16.10;99.90;;;;;;5045715;28;20556;-76
2023/06/23 00:10:05;;;;;;;2.10;1.45;;;16.10;99.90;;;;;;5046084;28;20426;-75
2023/06/23 00:12:35;;;;;;;1.15;1.08;;;16.10;99.90;;;;;;5045667;28;20039;-75
2023/06/23 00:15:05;;;;;;;3.90;0.95;;;16.00;99.90;;;;;;5045359;28;20037;-75
2023/06/23 00:17:31;;;;;;;0.35;0.35;;;16.00;99.90;;;;;;5045374;28;20045;-76
2023/06/23 00:19:57;;;;;;;1.42;0.93;;;16.00;99.90;;;;;;5044992;28;20431;-75
2023/06/23 00:22:23;;;;;;;2.50;1.38;;;15.90;99.90;;;;;;5046065;28;20049;-76
2023/06/23 00:24:49;;;;;;;1.08;0.80;;;16.00;99.90;;;;;;5045759;28;20049;-76
2023/06/23 00:27:14;;;;;;;5.30;1.73;;;16.00;99.90;;;;;;5045922;28;20045;-76
2023/06/23 00:29:40;;;;;;;0.88;0.73;;;16.00;99.90;;;;;;5051559;28;20044;-76
2023/06/23 00:32:06;;;;;;;1.20;0.65;;;16.10;99.90;;;;;;5065191;28;20048;-76
2023/06/23 00:34:32;;;;;;;0.73;0.73;;;16.00;99.90;;;;;;5065196;28;20525;-76
2023/06/23 00:36:57;;;;;;;0.08;0.08;;;16.00;99.90;;;;;;5065178;28;20036;-76
2023/06/23 00:39:23;;;;;;;0.32;0.28;;;16.00;99.90;;;;;;5061921;28;20037;-76
2023/06/23 00:41:49;;;;;;;0.40;0.40;;;15.90;99.90;;;;;;5045298;28;20053;-76
2023/06/23 00:44:16;;;;;;;0.43;0.28;;;16.00;99.90;;;;;;5045352;28;20045;-76
2023/06/23 00:46:43;;;;;;;1.83;0.68;;;16.00;99.90;;;;;;5045027;28;20049;-75
2023/06/23 00:49:10;;;;;;;1.35;0.77;;;16.00;99.90;;;;;;5044710;28;20123;-76
2023/06/23 00:51:36;;;;;;;4.22;1.73;;;15.90;99.90;;;;;;5045253;28;20048;-76
2023/06/23 00:54:04;;;;;;;2.60;0.98;;;15.90;99.90;;;;;;5056048;28;20040;-76
2023/06/23 00:56:30;;;;;;;0.57;0.40;;;15.90;99.90;;;;;;5030003;28;20037;-77
2023/06/23 00:58:57;;;;;;;1.10;0.73;;;15.90;99.90;;;;;;5024930;28;20038;-77
2023/06/23 01:01:23;;;;;;;0.55;0.55;;;15.90;99.90;;;;;;5053364;28;20055;-77
2023/06/23 01:03:48;;;;;;;1.02;0.93;;;15.90;99.90;;;;;;5065005;28;20048;-77
2023/06/23 01:06:36;;;;;;;0.95;0.90;;;15.80;99.90;;;;;;5064469;28;20392;-77
2023/06/23 01:09:12;;;;;;;0.68;0.60;;;15.80;99.90;;;;;;5064198;28;20368;-76
2023/06/23 01:11:53;;;;;;;0.00;0.00;;;15.80;99.90;;;;;;5047470;28;21157;-77
2023/06/23 01:14:34;;;;;;;0.80;0.65;;;15.80;99.90;;;;;;5044472;28;20491;-77
2023/06/23 01:17:14;;;;;;;1.98;1.02;;;15.80;99.90;;;;;;5044418;28;20399;-77
2023/06/23 01:20:20;;;;;;;0.40;0.40;;;15.70;99.90;;;;;;5044169;28;20057;-76
2023/06/23 01:23:07;;;;;;;0.40;0.40;;;15.70;99.90;;;;;;5044625;28;20045;-77
2023/06/23 01:25:55;;;;;;;1.10;0.70;;;15.70;99.90;;;;;;5045096;28;20076;-77
2023/06/23 01:28:58;;;;;;;0.43;0.43;;;15.70;99.90;;;;;;5057180;28;20048;-77
2023/06/23 01:31:44;;;;;;;0.52;0.52;;;15.70;99.90;;;;;;5051233;28;20403;-77
2023/06/23 01:34:28;;;;;;;0.77;0.40;;;15.70;99.90;;;;;;5045432;28;20045;-77
2023/06/23 01:37:05;;;;;;;0.85;0.80;;;15.70;99.90;;;;;;5026341;28;20088;-77
2023/06/23 01:39:35;;;;;;;0.70;0.65;;;15.70;99.90;;;;;;5024266;28;20084;-76
2023/06/23 01:42:07;;;;;;;0.45;0.45;;;15.60;99.90;;;;;;5059411;28;20041;-77
2023/06/23 01:44:35;;;;;;;0.30;0.30;;;15.60;99.90;;;;;;5063829;28;20052;-77
2023/06/23 01:47:07;;;;;;;7.65;2.47;;;15.50;99.90;;;;;;5063608;28;20052;-77
2023/06/23 01:49:37;;;;;;;1.73;1.00;;;15.50;99.90;;;;;;5064221;28;20109;-77
2023/06/23 01:52:06;;;;;;;2.17;1.60;;;15.50;99.90;;;;;;5064046;28;20059;-77
2023/06/23 01:54:36;;;;;;;0.00;0.00;;;15.50;99.90;;;;;;5063964;28;20048;-77
2023/06/23 01:57:03;;;;;;;0.60;0.45;;;15.40;99.90;;;;;;5063004;28;20048;-78
2023/06/23 01:59:31;;;;;;;0.70;0.55;;;15.40;99.90;;;;;;5043813;28;20049;-77
2023/06/23 02:01:58;;;;;;;0.47;0.47;;;15.30;99.90;;;;;;5043864;28;20120;-77
2023/06/23 02:04:25;;;;;;;4.72;0.43;;;15.40;99.90;;;;;;5043764;28;20503;-76
2023/06/23 02:06:52;;;;;;;1.55;0.82;;;15.30;99.90;;;;;;5043715;28;20044;-77
2023/06/23 02:09:24;;;;;;;0.20;0.20;;;15.30;99.90;;;;;;5043972;28;20041;-77
2023/06/23 02:11:51;;;;;;;0.15;0.15;;;15.30;99.90;;;;;;5056938;28;20084;-78
2023/06/23 02:14:19;;;;;;;0.47;0.40;;;15.30;99.90;;;;;;5063730;28;20103;-77
2023/06/23 02:16:46;;;;;;;0.93;0.45;;;15.30;99.90;;;;;;5063670;28;20044;-77
2023/06/23 02:19:13;;;;;;;0.17;0.17;;;15.30;99.90;;;;;;5063574;28;20475;-77
2023/06/23 02:21:41;;;;;;;0.00;0.00;;;15.30;99.90;;;;;;5063679;28;20056;-77
2023/06/23 02:24:07;;;;;;;0.05;0.05;;;15.30;99.90;;;;;;5055734;28;20652;-77
2023/06/23 02:26:35;;;;;;;0.90;0.70;;;15.30;99.90;;;;;;5043435;28;20044;-77
2023/06/23 02:29:03;;;;;;;1.00;0.65;;;15.30;99.90;;;;;;5043469;28;20056;-77
2023/06/23 02:31:30;;;;;;;0.13;0.13;;;15.30;99.90;;;;;;5043438;28;20088;-76
2023/06/23 02:33:56;;;;;;;1.02;0.98;;;15.30;99.90;;;;;;5043097;28;20040;-77
2023/06/23 02:36:25;;;;;;;0.57;0.25;;;15.40;99.90;;;;;;5025882;28;20061;-77
2023/06/23 02:38:54;;;;;;;0.35;0.28;;;15.40;99.90;;;;;;5043275;28;20041;-81
2023/06/23 02:41:22;;;;;;;0.50;0.50;;;15.40;99.90;;;;;;5045214;28;20132;-77
2023/06/23 02:43:51;;;;;;;3.33;0.98;;;15.40;99.90;;;;;;5050095;28;20048;-77
2023/06/23 02:46:22;;;;;;;0.13;0.10;;;15.40;99.90;;;;;;5049996;28;20045;-77
2023/06/23 02:48:51;;;;;;;0.10;0.10;;;15.30;99.90;;;;;;5049834;28;20044;-77
2023/06/23 02:51:20;;;;;;;0.65;0.50;;;15.30;99.90;;;;;;5049939;28;20124;-78
2023/06/23 02:53:51;;;;;;;0.55;0.55;;;15.30;99.90;;;;;;5049881;28;20057;-77
2023/06/23 02:56:23;;;;;;;0.10;0.10;;;15.40;99.90;;;;;;5049915;28;20048;-76
2023/06/23 02:58:51;;;;;;;0.00;0.00;;;15.40;99.90;;;;;;5049498;28;20105;-77
2023/06/23 03:01:22;;;;;;;0.68;0.63;;;15.40;99.90;;;;;;5031940;28;20088;-77
2023/06/23 03:03:49;;;;;;;0.00;0.00;;;15.40;99.90;;;;;;5049791;28;20168;-77
2023/06/23 03:06:19;;;;;;;1.35;0.93;;;15.50;99.90;;;;;;5049412;28;20047;-77
2023/06/23 03:08:46;;;;;;;0.32;0.32;;;15.40;99.90;;;;;;5049996;28;20487;-77
2023/06/23 03:11:12;;;;;;;0.00;0.00;;;15.40;99.90;;;;;;5050048;28;20522;-77
2023/06/23 03:13:38;;;;;;;0.35;0.35;;;15.30;99.90;;;;;;5049436;28;20044;-77
2023/06/23 03:16:09;;;;;;;0.35;0.32;;;15.30;99.90;;;;;;5049271;28;20044;-77
2023/06/23 03:18:37;;;;;;;0.10;0.10;;;15.30;99.90;;;;;;5049116;28;20055;-78
2023/06/23 03:21:05;;;;;;;0.82;0.82;;;15.20;99.90;;;;;;5050007;28;20407;-77
2023/06/23 03:23:32;;;;;;;1.55;0.68;;;15.20;99.90;;;;;;5049347;28;20048;-77
2023/06/23 03:26:00;;;;;;;0.05;0.03;;;15.20;99.90;;;;;;5049843;28;20045;-77
2023/06/23 03:28:28;;;;;;;0.75;0.60;;;15.20;99.90;;;;;;5049701;28;20057;-76
2023/06/23 03:31:00;;;;;;;1.13;0.20;;;15.20;99.90;;;;;;5049986;28;20033;-76
2023/06/23 03:33:42;;;;;;;2.10;1.05;;;15.20;99.90;;;;;;5049595;28;20411;-76
2023/06/23 03:36:22;;;;;;;0.35;0.30;;;15.20;99.90;;;;;;5056298;28;20049;-78
2023/06/23 03:38:57;;;;;;;0.05;0.05;;;15.20;99.90;;;;;;5061189;28;20049;-77
2023/06/23 03:41:26;;;;;;;0.00;0.00;;;15.20;99.90;;;;;;5049480;28;20132;-77
2023/06/23 03:43:59;;;;;;;0.05;0.05;;;15.40;99.90;;;;;;5049280;28;20098;-77
2023/06/23 03:46:42;;;;;;;0.15;0.05;;;15.10;99.90;;;;;;5048130;28;20053;-77
2023/06/23 03:49:10;;;;;;;0.32;0.28;;;15.10;99.90;;;;;;5049504;28;20509;-77
2023/06/23 03:51:39;;;;;;;0.68;0.60;;;15.10;99.90;;;;;;5049529;28;20047;-77
2023/06/23 03:54:06;;;;;;;0.85;0.65;;;15.10;99.90;;;;;;5046262;28;20072;-77
2023/06/23 03:56:34;;;;;;;0.20;0.20;;;15.00;99.90;;;;;;5046387;28;20120;-77
2023/06/23 03:59:02;;;;;;;1.13;1.00;;;15.00;99.90;;;;;;5046437;28;20160;-77
2023/06/23 04:01:29;;;;;;;15.43;0.55;;;15.00;99.90;;;;;;5045970;28;20124;-77
2023/06/23 04:03:57;;;;;;;0.15;0.08;;;15.80;99.90;;;;;;5045811;28;20083;-77
2023/06/23 04:06:26;;;;;;;0.40;0.25;;;15.00;99.90;;;;;;5046095;28;20107;-76
2023/06/23 04:08:54;;;;;;;1.27;0.40;;;14.90;99.90;;;;;;5045947;28;20049;-76
2023/06/23 04:11:22;;;;;;;0.40;0.17;;;14.90;99.90;;;;;;5046011;28;20079;-77
2023/06/23 04:13:50;;;;;;;0.10;0.10;;;14.90;99.90;;;;;;5045812;28;20490;-77
2023/06/23 04:16:17;;;;;;;0.55;0.50;;;15.00;99.90;;;;;;5050246;28;20049;-77
2023/06/23 04:18:45;;;;;;;0.50;0.20;;;15.00;99.90;;;;;;5065401;28;20507;-76
2023/06/23 04:21:14;;;;;;;0.40;0.40;;;15.00;99.90;;;;;;5066263;28;20473;-77
2023/06/23 04:23:42;;;;;;;0.00;0.00;;;15.10;99.90;;;;;;5065667;28;20041;-77
2023/06/23 04:26:10;;;;;;;2.60;0.52;;;15.10;99.90;;;;;;5065976;28;20055;-77
2023/06/23 04:28:38;;;;;;;0.00;0.00;;;15.10;99.90;;;;;;5065153;28;20113;-77
2023/06/23 04:31:07;;;;;;;0.28;0.28;;;15.20;99.90;;;;;;5065421;28;20056;-77
2023/06/23 04:33:33;;;;;;;0.32;0.10;;;15.40;99.90;;;;;;5065632;28;20045;-77
2023/06/23 04:36:05;;;;;;;0.10;0.10;;;15.30;99.90;;;;;;5065810;28;20045;-77
2023/06/23 04:38:34;;;;;;;6.18;0.60;;;15.40;99.90;;;;;;5065586;28;20101;-77
2023/06/23 04:41:07;;;;;;;0.15;0.10;;;15.40;99.90;;;;;;5065443;28;20437;-77
2023/06/23 04:43:38;;;;;;;0.52;0.28;;;15.50;99.90;;;;;;5065240;28;20419;-77
2023/06/23 04:46:11;;;;;;;1.33;0.68;;;15.40;99.90;;;;;;5064622;28;20044;-76
2023/06/23 04:48:42;;;;;;;0.40;0.32;;;15.40;99.90;;;;;;5062966;28;20048;-77
2023/06/23 04:51:09;;;;;;;0.25;0.25;;;15.40;99.90;;;;;;5065347;28;20056;-76
2023/06/23 04:53:41;;;;;;;0.22;0.22;;;15.40;99.90;;;;;;5064739;28;20052;-75
2023/06/23 04:56:14;;;;;;;1.35;1.05;;;15.40;99.90;;;;;;5065328;28;20097;-77
2023/06/23 04:58:42;;;;;;;0.15;0.05;;;15.40;99.90;;;;;;5048667;28;20049;-78
2023/06/23 05:01:11;;;;;;;0.65;0.43;;;15.30;99.90;;;;;;5043244;28;20057;-77
2023/06/23 05:03:38;;;;;;;0.90;0.25;;;15.30;99.90;;;;;;5042127;28;20072;-77
2023/06/23 05:06:05;;;;;;;0.80;0.77;;;15.40;99.90;;;;;;5041991;28;20072;-77
2023/06/23 05:08:32;;;;;;;0.75;0.32;;;15.40;99.90;;;;;;5042185;28;20086;-77
2023/06/23 05:11:05;;;;;;;0.20;0.20;;;15.40;99.90;;;;;;5042521;28;20539;-76
2023/06/23 05:13:32;;;;;;;0.30;0.30;;;15.60;99.90;;;;;;5042015;28;20073;-76
2023/06/23 05:16:00;;;;;;;1.90;0.60;;;15.60;99.90;;;;;;5042530;28;20080;-76
2023/06/23 05:18:28;;;;;;;1.13;0.40;;;15.70;99.90;;;;;;5057125;28;20056;-77
2023/06/23 05:20:58;;;;;;;0.45;0.45;;;15.80;99.90;;;;;;5061705;28;20060;-77
2023/06/23 05:23:25;;;;;;;0.10;0.10;;;15.90;99.90;;;;;;5061682;28;20130;-77
2023/06/23 05:25:52;;;;;;;1.45;0.52;;;16.00;99.90;;;;;;5062140;28;20106;-77
2023/06/23 05:28:20;;;;;;;7.53;0.88;;;16.30;99.90;;;;;;5048587;28;20082;-76
2023/06/23 05:30:46;;;;;;;0.55;0.43;;;16.10;99.90;;;;;;5048891;28;20119;-76
2023/06/23 05:33:14;;;;;;;1.20;0.95;;;16.10;99.90;;;;;;5044632;28;20041;-76
2023/06/23 05:35:41;;;;;;;0.47;0.47;;;16.10;99.90;;;;;;5043065;28;20120;-76
2023/06/23 05:38:09;;;;;;;0.45;0.32;;;16.20;99.90;;;;;;5042969;28;20048;-77
2023/06/23 05:40:35;;;;;;;1.17;0.70;;;16.20;99.90;;;;;;5042536;28;20041;-77
2023/06/23 05:43:02;;;;;;;0.73;0.43;;;16.20;99.90;;;;;;5042628;28;20487;-77
2023/06/23 05:45:28;;;;;;;0.47;0.30;;;16.10;99.90;;;;;;5042580;28;20084;-77
2023/06/23 05:47:59;;;;;;;0.17;0.17;;;16.10;99.90;;;;;;5041962;28;20107;-76
2023/06/23 05:50:33;;;;;;;0.80;0.57;;;16.20;99.90;;;;;;5042085;28;20140;-76
2023/06/23 05:53:18;;;;;;;0.10;0.10;;;16.20;99.90;;;;;;5040146;28;20131;-76
2023/06/23 05:55:51;;;;;;;2.38;0.85;;;16.20;99.90;;;;;;5042901;28;20049;-77
2023/06/23 05:58:22;;;;;;;1.05;0.60;;;16.30;99.90;;;;;;5042532;28;20060;-77
2023/06/23 06:00:54;;;;;;;1.75;0.73;;;16.40;99.90;;;;;;5042658;28;20049;-77
2023/06/23 06:03:24;;;;;;;0.20;0.20;;;16.30;99.90;;;;;;5041833;28;20052;-77
2023/06/23 06:05:55;;;;;;;4.53;0.45;;;16.30;99.90;;;;;;5042339;28;20055;-77
2023/06/23 06:08:26;;;;;;;0.30;0.30;;;16.40;99.90;;;;;;5042674;28;20229;-77
2023/06/23 06:10:53;;;;;;;0.32;0.28;;;16.40;99.90;;;;;;5042615;28;20048;-77
2023/06/23 06:13:22;;;;;;;0.20;0.20;;;16.50;99.90;;;;;;5041267;28;20495;-77
2023/06/23 06:15:51;;;;;;;0.20;0.20;;;16.80;99.90;;;;;;5038971;28;20092;-77
2023/06/23 06:18:19;;;;;;;4.57;1.13;;;17.10;99.90;;;;;;5039113;28;20531;-77
2023/06/23 06:20:47;;;;;;;0.30;0.20;;;17.50;99.90;;;;;;5039564;28;20453;-77
2023/06/23 06:23:15;;;;;;;5.38;1.08;;;18.60;99.90;;;;;;5039726;28;20144;-77
2023/06/23 06:25:44;;;;;;;0.43;0.28;;;19.20;99.90;;;;;;5039197;28;20052;-77
2023/06/23 06:28:12;;;;;;;0.65;0.65;;;19.30;99.90;;;;;;5039765;28;20132;-77
2023/06/23 06:30:40;;;;;;;0.85;0.15;;;19.30;99.90;;;;;;5039423;28;20059;-77
2023/06/23 06:33:09;;;;;;;0.00;0.00;;;19.50;99.90;;;;;;5039405;28;20055;-77
2023/06/23 06:35:37;;;;;;;0.90;0.38;;;20.30;99.90;;;;;;5039494;28;20053;-77
2023/06/23 06:38:05;;;;;;;0.90;0.57;;;21.70;99.90;;;;;;5039196;28;20125;-77
2023/06/23 06:40:32;;;;;;;0.63;0.45;;;22.40;99.90;;;;;;5039144;28;20594;-77
2023/06/23 06:42:58;;;;;;;2.10;0.90;;;23.40;99.90;;;;;;5021749;28;20075;-77
2023/06/23 06:45:24;;;;;;;0.65;0.60;;;23.70;1.00;;;;;;5039650;28;20056;-77
2023/06/23 06:47:51;;;;;;;2.65;1.23;;;24.60;99.90;;;;;;5039908;28;20053;-77
2023/06/23 06:50:17;;;;;;;0.20;0.20;;;24.40;97.20;;;;;;5039422;28;20045;-77
2023/06/23 06:52:45;;;;;;;0.20;0.20;;;24.50;1.00;;;;;;5039244;28;20116;-78
2023/06/23 06:55:18;;;;;;;0.00;0.00;;;24.70;99.90;;;;;;5039346;28;20492;-78
2023/06/23 06:57:48;;;;;;;0.20;0.20;;;25.00;1.00;;;;;;5041122;28;20099;-80
2023/06/23 07:00:19;;;;;;;2.65;1.73;;;25.30;1.00;;;;;;5042780;28;20503;-75
2023/06/23 07:02:45;;;;;;;1.33;0.45;;;25.40;99.90;;;;;;5039413;28;20488;-76
2023/06/23 07:05:11;;;;;;;0.95;0.63;;;26.10;99.90;;;;;;5039246;28;20538;-76
2023/06/23 07:07:37;;;;;;;0.20;0.20;;;26.10;99.90;;;;;;5039113;28;20080;-76
2023/06/23 07:10:03;;;;;;;0.10;0.10;;;26.20;99.90;;;;;;5038890;28;20050;-76
2023/06/23 07:12:31;;;;;;;0.17;0.17;;;26.30;99.90;;;;;;5039268;28;20052;-76
2023/06/23 07:14:56;;;;;;;2.25;1.20;;;25.60;99.90;;;;;;5032933;28;20403;-76
2023/06/23 07:17:22;;;;;;;0.10;0.10;;;25.80;99.90;;;;;;5041743;28;20052;-76
2023/06/23 07:19:48;;;;;;;0.30;0.28;;;26.30;1.00;;;;;;5040431;28;20060;-76
2023/06/23 07:22:13;;;;;;;0.30;0.30;;;26.40;99.90;;;;;;5041234;28;20053;-76
2023/06/23 07:24:39;;;;;;;1.02;0.55;;;26.80;1.00;;;;;;5041345;28;20132;-76
2023/06/23 07:27:05;;;;;;;1.65;0.90;;;27.00;80.40;;;;;;5041370;28;20124;-76
2023/06/23 07:29:31;;;;;;;0.43;0.35;;;27.40;99.90;;;;;;5045386;28;20054;-76
2023/06/23 07:31:57;;;;;;;0.50;0.40;;;27.50;99.90;;;;;;5044905;28;20041;-76
2023/06/23 07:34:23;;;;;;;0.10;0.10;;;28.10;1.00;;;;;;5044860;28;20267;-76
2023/06/23 07:36:48;;;;;;;1.27;0.68;;;28.10;99.90;;;;;;5044893;28;20553;-76
2023/06/23 07:39:14;;;;;;;0.10;0.10;;;27.80;1.00;;;;;;5044858;28;20045;-75
2023/06/23 07:41:40;;;;;;;1.27;0.52;;;27.20;1.00;;;;;;5045402;28;20423;-76
2023/06/23 07:44:05;;;;;;;0.43;0.13;;;27.10;1.00;;;;;;5045022;28;20076;-76
2023/06/23 07:46:32;;;;;;;0.88;0.47;;;27.90;99.90;;;;;;5044998;28;20044;-76
2023/06/23 07:48:58;;;;;;;0.98;0.85;;;28.70;69.80;;;;;;5044880;28;20119;-76
2023/06/23 07:51:23;;;;;;;1.77;0.40;;;29.30;17.50;;;;;;5045284;28;20119;-76
2023/06/23 07:53:49;;;;;;;0.63;0.47;;;28.90;1.00;;;;;;5044882;28;20567;-76
2023/06/23 07:56:15;;;;;;;0.20;0.15;;;29.00;99.90;;;;;;5045166;28;20106;-76
2023/06/23 07:58:40;;;;;;;0.45;0.40;;;28.70;99.90;;;;;;5044820;28;20087;-76
2023/06/23 08:01:06;;;;;;;0.40;0.40;;;28.20;99.90;;;;;;5044577;28;20045;-76
2023/06/23 08:03:32;;;;;;;1.13;1.00;;;28.50;99.90;;;;;;5044407;28;20565;-75
2023/06/23 08:05:58;;;;;;;0.05;0.05;;;28.00;99.90;;;;;;5044458;28;20045;-75
2023/06/23 08:08:24;;;;;;;0.17;0.17;;;27.90;99.90;;;;;;5044144;28;20139;-76
2023/06/23 08:10:50;;;;;;;0.10;0.10;;;28.20;99.90;;;;;;5044409;28;20625;-76
2023/06/23 08:13:15;;;;;;;2.85;1.27;;;28.40;99.90;;;;;;5044298;28;20045;-76
2023/06/23 08:15:41;;;;;;;0.85;0.52;;;29.00;99.90;;;;;;5044253;28;20052;-76
2023/06/23 08:18:08;;;;;;;0.95;0.43;;;29.60;99.90;;;;;;5044133;28;20045;-75
2023/06/23 08:20:33;;;;;;;1.35;0.57;;;29.10;99.90;;;;;;5043975;28;20131;-76
2023/06/23 08:22:59;;;;;;;2.92;1.05;;;29.00;99.90;;;;;;5043861;28;20116;-75
2023/06/23 08:25:25;;;;;;;0.38;0.35;;;29.60;99.90;;;;;;5044216;28;20123;-76
2023/06/23 08:27:51;;;;;;;0.35;0.32;;;29.80;99.90;;;;;;5044112;28;20044;-76
2023/06/23 08:30:29;;;;;;;0.30;0.30;;;30.30;99.90;;;;;;5044321;28;20072;-75
2023/06/23 08:32:55;;;;;;;0.22;0.22;;;30.50;65.60;;;;;;5044153;28;20388;-75
2023/06/23 08:35:21;;;;;;;1.55;0.90;;;29.80;1.00;;;;;;5043851;28;20048;-75
2023/06/23 08:37:47;;;;;;;6.82;1.15;;;30.10;11.50;;;;;;5044041;28;20389;-76
2023/06/23 08:40:13;;;;;;;0.20;0.17;;;29.50;1.00;;;;;;5043303;28;20052;-75
2023/06/23 08:42:39;;;;;;;0.20;0.10;;;29.60;1.00;;;;;;5043733;28;20049;-75
2023/06/23 08:45:07;;;;;;;0.17;0.15;;;29.80;1.00;;;;;;5043738;28;20056;-75
2023/06/23 08:47:41;;;;;;;0.25;0.22;;;29.70;1.00;;;;;;5043696;28;20360;-75
2023/06/23 08:50:08;;;;;;;0.40;0.30;;;29.40;1.00;;;;;;5043693;28;20052;-75
2023/06/23 08:52:35;;;;;;;0.00;0.00;;;29.40;1.00;;;;;;5043797;28;20041;-75
2023/06/23 08:55:02;;;;;;;0.63;0.52;;;29.40;1.00;;;;;;5043701;28;20045;-75
2023/06/23 08:57:28;;;;;;;0.10;0.10;;;28.90;1.00;;;;;;5043525;28;20040;-75
2023/06/23 08:59:55;;;;;;;1.15;0.30;;;29.60;1.00;;;;;;5043358;28;20049;-75
2023/06/23 09:02:20;;;;;;;0.15;0.10;;;29.50;1.00;;;;;;5043558;28;20057;-75
2023/06/23 09:04:46;;;;;;;0.77;0.22;;;30.20;1.00;;;;;;5043093;28;20044;-75
2023/06/23 09:07:12;;;;;;;1.08;0.40;;;30.00;1.00;;;;;;5043256;28;20048;-75
2023/06/23 09:09:38;;;;;;;0.35;0.35;;;30.50;1.00;;;;;;5043233;28;20490;-75
2023/06/23 09:12:04;;;;;;;0.00;0.00;;;30.30;99.90;;;;;;5043193;28;20056;-75
2023/06/23 09:14:30;;;;;;;0.10;0.10;;;30.00;99.90;;;;;;5043227;28;20071;-75
2023/06/23 09:16:57;;;;;;;0.38;0.15;;;29.90;99.90;;;;;;5043153;28;20637;-75
2023/06/23 09:19:24;;;;;;;0.05;0.05;;;30.30;1.00;;;;;;5042972;28;20518;-75
2023/06/23 09:21:51;;;;;;;0.32;0.20;;;30.40;1.00;;;;;;5042925;28;20574;-75
2023/06/23 09:24:17;;;;;;;0.00;0.00;;;30.90;1.00;;;;;;5043041;28;20086;-75
2023/06/23 09:26:48;;;;;;;0.32;0.25;;;31.20;1.00;;;;;;5043058;28;20503;-75
2023/06/23 09:29:22;;;;;;;5.18;0.40;;;30.70;1.00;;;;;;5043005;28;20171;-75
2023/06/23 09:31:50;;;;;;;0.17;0.17;;;30.40;1.00;;;;;;5042755;28;20116;-75
2023/06/23 09:34:24;;;;;;;0.80;0.60;;;30.80;99.90;;;;;;5042940;28;20048;-75
2023/06/23 09:36:50;;;;;;;0.30;0.15;;;30.70;99.90;;;;;;5043004;28;20137;-75
2023/06/23 09:39:16;;;;;;;0.00;0.00;;;31.00;1.00;;;;;;5042897;28;20084;-75
2023/06/23 09:41:47;;;;;;;0.15;0.10;;;31.40;1.00;;;;;;5043291;28;20075;-75
2023/06/23 09:44:13;;;;;;;0.60;0.45;;;31.60;99.90;;;;;;5042755;28;20461;-76
2023/06/23 09:46:42;;;;;;;0.73;0.47;;;31.10;99.90;;;;;;5042735;28;20123;-75
2023/06/23 09:49:07;;;;;;;1.27;1.00;;;30.00;99.90;;;;;;5042564;28;20049;-75
2023/06/23 09:51:37;;;;;;;0.22;0.22;;;30.30;99.90;;;;;;5042452;28;20056;-75
2023/06/23 09:54:03;;;;;;;0.45;0.40;;;30.70;99.90;;;;;;5042720;28;20105;-75
2023/06/23 09:56:29;;;;;;;1.75;0.65;;;30.30;99.90;;;;;;5042406;28;20084;-75
2023/06/23 09:58:54;;;;;;;0.20;0.10;;;29.80;99.90;;;;;;5042100;28;20150;-75
2023/06/23 10:01:20;;;;;;;0.22;0.20;;;29.40;99.90;;;;;;5042562;28;20434;-75
2023/06/23 10:03:54;;;;;;;0.30;0.30;;;29.10;99.90;;;;;;5042254;28;20049;-75
2023/06/23 10:06:25;;;;;;;2.60;0.47;;;29.30;99.90;;;;;;5042572;28;20128;-75
2023/06/23 10:08:55;;;;;;;0.47;0.45;;;28.90;99.90;;;;;;5042592;28;20055;-75
2023/06/23 10:11:29;;;;;;;0.15;0.13;;;28.50;99.90;;;;;;5043184;28;20045;-76
2023/06/23 10:13:56;;;;;;;0.20;0.20;;;28.60;99.90;;;;;;5043322;28;20041;-75
2023/06/23 10:16:22;;;;;;;7.03;1.13;;;28.60;99.90;;;;;;5042750;28;20044;-75
2023/06/23 10:18:48;;;;;;;0.10;0.10;;;28.20;99.90;;;;;;5042262;28;20483;-75
2023/06/23 10:21:14;;;;;;;0.13;0.10;;;28.30;99.90;;;;;;5042382;28;20101;-75
2023/06/23 10:23:40;;;;;;;0.85;0.52;;;28.30;99.90;;;;;;5041836;28;20044;-75
2023/06/23 10:26:07;;;;;;;0.70;0.52;;;28.20;99.90;;;;;;5024433;28;20093;-75
2023/06/23 10:28:36;;;;;;;0.45;0.45;;;27.80;99.90;;;;;;5042391;28;20090;-75
2023/06/23 10:31:05;;;;;;;1.10;0.55;;;27.90;99.90;;;;;;5042519;28;20451;-75
2023/06/23 10:33:32;;;;;;;0.08;0.08;;;28.10;99.90;;;;;;5042081;28;20052;-75
2023/06/23 10:36:00;;;;;;;0.20;0.10;;;27.80;99.90;;;;;;5040415;28;20088;-75
2023/06/23 10:38:28;;;;;;;4.05;0.13;;;28.00;99.90;;;;;;5041753;28;20051;-75
2023/06/23 10:40:58;;;;;;;0.13;0.10;;;28.30;99.90;;;;;;5040484;28;20460;-75
2023/06/23 10:43:27;;;;;;;0.45;0.30;;;28.10;99.90;;;;;;5041914;28;20056;-75
2023/06/23 10:45:54;;;;;;;0.65;0.55;;;28.60;99.90;;;;;;5041924;28;20072;-75
2023/06/23 10:48:19;;;;;;;5.60;0.73;;;29.10;99.90;;;;;;5041631;28;20098;-75
2023/06/23 10:50:47;;;;;;;1.10;0.28;;;29.20;99.90;;;;;;5041646;28;21059;-75
2023/06/23 10:53:24;;;;;;;1.77;0.32;;;29.10;99.90;;;;;;5041776;28;20407;-75
2023/06/23 10:55:56;;;;;;;0.43;0.30;;;28.70;99.90;;;;;;5041899;28;20573;-75
2023/06/23 10:58:23;;;;;;;0.10;0.10;;;29.10;99.90;;;;;;5042154;28;20044;-75
2023/06/23 11:00:54;;;;;;;0.40;0.40;;;29.40;99.90;;;;;;5041680;28;20141;-75
2023/06/23 11:03:29;;;;;;;0.05;0.05;;;28.90;99.90;;;;;;5044179;28;20143;-75
2023/06/23 11:05:56;;;;;;;0.20;0.20;;;29.30;99.90;;;;;;5046223;28;20475;-75
2023/06/23 11:08:39;;;;;;;0.10;0.10;;;28.60;99.90;;;;;;5045850;28;20059;-75
2023/06/23 11:11:07;;;;;;;0.63;0.30;;;28.70;99.90;;;;;;5046061;28;20107;-75
2023/06/23 11:13:47;;;;;;;0.10;0.10;;;28.60;99.90;;;;;;5045301;28;20051;-75
2023/06/23 11:16:25;;;;;;;2.30;0.80;;;29.20;99.90;;;;;;5045695;28;20111;-75
2023/06/23 11:18:57;;;;;;;0.43;0.32;;;29.90;99.90;;;;;;5045261;28;20076;-75
2023/06/23 11:21:41;;;;;;;1.15;0.90;;;29.70;99.90;;;;;;5028433;28;20037;-75
2023/06/23 11:24:09;;;;;;;0.08;0.05;;;29.40;99.90;;;;;;5045780;28;20439;-75
2023/06/23 11:26:35;;;;;;;0.20;0.20;;;28.90;99.90;;;;;;5045875;28;20107;-75
2023/06/23 11:29:01;;;;;;;0.60;0.28;;;29.60;99.90;;;;;;5045509;28;20098;-75
2023/06/23 11:31:27;;;;;;;2.72;0.88;;;30.30;99.90;;;;;;5045541;28;20044;-75
2023/06/23 11:34:01;;;;;;;0.10;0.10;;;30.70;99.90;;;;;;5045333;28;20479;-75
2023/06/23 11:36:29;;;;;;;0.63;0.40;;;30.70;99.90;;;;;;5045174;28;20056;-75
2023/06/23 11:38:56;;;;;;;0.38;0.28;;;30.20;99.90;;;;;;5045377;28;20049;-75
2023/06/23 11:41:27;;;;;;;0.75;0.55;;;30.10;99.90;;;;;;5045760;28;20072;-74
2023/06/23 11:43:57;;;;;;;0.50;0.28;;;30.80;99.90;;;;;;5045124;28;20052;-74
2023/06/23 11:46:23;;;;;;;0.00;0.00;;;29.80;99.90;;;;;;5045148;28;20099;-75
2023/06/23 11:48:49;;;;;;;0.10;0.10;;;30.40;99.90;;;;;;5045246;28;20446;-75
2023/06/23 11:51:16;;;;;;;0.75;0.50;;;31.60;99.90;;;;;;5045137;28;20053;-75
2023/06/23 11:53:42;;;;;;;1.55;0.55;;;30.90;99.90;;;;;;5044984;28;20045;-75
2023/06/23 11:56:15;;;;;;;0.38;0.25;;;31.10;99.90;;;;;;5045402;28;20041;-75
2023/06/23 11:58:41;;;;;;;0.47;0.43;;;32.10;99.90;;;;;;5045136;28;20055;-75
2023/06/23 12:01:09;;;;;;;0.52;0.52;;;33.10;99.90;;;;;;5044737;28;20091;-75
2023/06/23 12:03:36;;;;;;;0.50;0.38;;;32.60;99.90;;;;;;5044719;28;20051;-75
2023/06/23 12:06:02;;;;;;;0.30;0.30;;;32.00;99.90;;;;;;5044968;28;20080;-75
2023/06/23 12:08:28;;;;;;;0.10;0.10;;;31.70;99.90;;;;;;5045874;28;20426;-75
2023/06/23 12:10:55;;;;;;;0.52;0.43;;;32.10;99.90;;;;;;5045780;28;20499;-75
2023/06/23 12:13:21;;;;;;;0.28;0.28;;;32.40;99.90;;;;;;5044104;28;20049;-75
2023/06/23 12:15:47;;;;;;;0.75;0.52;;;33.10;99.90;;;;;;5044210;28;20049;-75
2023/06/23 12:18:13;;;;;;;0.55;0.30;;;32.50;99.90;;;;;;5045135;28;20526;-75
2023/06/23 12:20:42;;;;;;;0.30;0.30;;;32.80;99.90;;;;;;5045014;28;20549;-74
2023/06/23 12:23:10;;;;;;;0.43;0.30;;;32.70;99.90;;;;;;5044415;28;20104;-74
2023/06/23 12:25:44;;;;;;;1.15;0.60;;;32.20;99.90;;;;;;5044380;28;20041;-75
2023/06/23 12:28:18;;;;;;;6.60;0.98;;;31.70;99.90;;;;;;5044648;28;20036;-74
2023/06/23 12:30:49;;;;;;;0.50;0.50;;;32.00;99.90;;;;;;5044023;28;20163;-74
2023/06/23 12:33:29;;;;;;;0.38;0.25;;;32.30;99.90;;;;;;5044110;28;20044;-74
2023/06/23 12:35:59;;;;;;;0.22;0.22;;;32.70;99.90;;;;;;5044120;28;20056;-74
2023/06/23 12:38:25;;;;;;;0.13;0.13;;;32.00;1.00;;;;;;5043938;28;20511;-75
2023/06/23 12:40:51;;;;;;;1.10;0.75;;;32.60;1.00;;;;;;5043877;28;20049;-74
2023/06/23 12:43:18;;;;;;;0.10;0.10;;;32.60;1.00;;;;;;5043544;28;20125;-74
2023/06/23 12:45:46;;;;;;;0.25;0.15;;;32.10;99.90;;;;;;5043845;28;20052;-74
2023/06/23 12:48:12;;;;;;;0.45;0.35;;;32.20;1.00;;;;;;5025515;28;20055;-74
2023/06/23 12:50:41;;;;;;;0.88;0.38;;;32.50;1.00;;;;;;5043624;28;20450;-74
2023/06/23 12:53:07;;;;;;;0.60;0.22;;;32.80;1.00;;;;;;5043918;28;20048;-74
2023/06/23 12:55:33;;;;;;;0.75;0.35;;;32.60;1.00;;;;;;5043749;28;20399;-75